sensor_id;sensor_type;location;lat;lon;timestamp;temperature;humidity
64032;DHT22;50278;47.796;11.968;2023-02-04T00:01:39;4.34;118.99
64032;DHT22;50278;47.796;11.968;2023-02-04T00:04:04;4.29;118.99
64032;DHT22;50278;47.796;11.968;2023-02-04T00:06:30;4.29;118.99
64032;DHT22;50278;47.796;11.968;2023-02-04T00:08:55;4.30;118.99
64032;DHT22;50278;47.796;11.968;2023-02-04T00:11:21;4.32;118.99
64032;DHT22;50278;47.796;11.968;2023-02-04T00:13:47;4.22;118.99
64032;DHT22;50278;47.796;11.968;2023-02-04T00:16:12;4.18;118.99
64032;DHT22;50278;47.796;11.968;2023-02-04T00:18:38;4.17;118.99
64032;DHT22;50278;47.796;11.968;2023-02-04T00:21:03;4.07;118.99
64032;DHT22;50278;47.796;11.968;2023-02-04T00:23:29;4.09;118.99
64032;DHT22;50278;47.796;11.968;2023-02-04T00:25:55;4.08;118.99
64032;DHT22;50278;47.796;11.968;2023-02-04T00:28:20;4.10;118.99
64032;DHT22;50278;47.796;11.968;2023-02-04T00:30:46;4.13;118.99
64032;DHT22;50278;47.796;11.968;2023-02-04T00:33:12;4.08;118.99
64032;DHT22;50278;47.796;11.968;2023-02-04T00:35:38;4.08;118.99
64032;DHT22;50278;47.796;11.968;2023-02-04T00:38:05;4.09;118.99
64032;DHT22;50278;47.796;11.968;2023-02-04T00:40:31;4.10;118.99
64032;DHT22;50278;47.796;11.968;2023-02-04T00:42:57;4.13;118.99
64032;DHT22;50278;47.796;11.968;2023-02-04T00:45:22;4.12;118.99
64032;DHT22;50278;47.796;11.968;2023-02-04T00:47:48;4.05;118.99
64032;DHT22;50278;47.796;11.968;2023-02-04T00:50:14;4.01;118.99
64032;DHT22;50278;47.796;11.968;2023-02-04T00:52:40;4.05;118.99
64032;DHT22;50278;47.796;11.968;2023-02-04T00:55:07;4.05;118.99
64032;DHT22;50278;47.796;11.968;2023-02-04T00:57:34;4.05;118.99
64032;DHT22;50278;47.796;11.968;2023-02-04T01:00:00;4.09;118.99
64032;DHT22;50278;47.796;11.968;2023-02-04T01:02:26;4.06;118.99
64032;DHT22;50278;47.796;11.968;2023-02-04T01:04:51;4.13;118.99
64032;DHT22;50278;47.796;11.968;2023-02-04T01:07:17;4.04;118.99
64032;DHT22;50278;47.796;11.968;2023-02-04T01:09:42;4.05;118.99
64032;DHT22;50278;47.796;11.968;2023-02-04T01:12:08;4.06;118.99
64032;DHT22;50278;47.796;11.968;2023-02-04T01:14:34;3.98;118.99
64032;DHT22;50278;47.796;11.968;2023-02-04T01:17:00;4.00;118.99
64032;DHT22;50278;47.796;11.968;2023-02-04T01:19:25;4.00;118.99
64032;DHT22;50278;47.796;11.968;2023-02-04T01:21:52;3.97;118.99
64032;DHT22;50278;47.796;11.968;2023-02-04T01:24:19;3.94;118.99
64032;DHT22;50278;47.796;11.968;2023-02-04T01:27:03;3.91;118.99
64032;DHT22;50278;47.796;11.968;2023-02-04T01:29:28;3.84;118.99
64032;DHT22;50278;47.796;11.968;2023-02-04T01:31:54;3.79;118.99
64032;DHT22;50278;47.796;11.968;2023-02-04T01:34:19;3.76;118.99
64032;DHT22;50278;47.796;11.968;2023-02-04T01:36:45;3.77;118.99
64032;DHT22;50278;47.796;11.968;2023-02-04T01:39:10;3.74;118.99
64032;DHT22;50278;47.796;11.968;2023-02-04T01:41:36;3.74;118.99
64032;DHT22;50278;47.796;11.968;2023-02-04T01:44:02;3.78;118.99
64032;DHT22;50278;47.796;11.968;2023-02-04T01:46:28;3.80;118.99
64032;DHT22;50278;47.796;11.968;2023-02-04T01:48:54;3.75;118.99
64032;DHT22;50278;47.796;11.968;2023-02-04T01:51:25;3.82;118.99
64032;DHT22;50278;47.796;11.968;2023-02-04T01:53:52;3.80;118.99
64032;DHT22;50278;47.796;11.968;2023-02-04T01:56:22;3.83;118.99
64032;DHT22;50278;47.796;11.968;2023-02-04T01:58:48;3.87;118.99
64032;DHT22;50278;47.796;11.968;2023-02-04T02:01:50;3.97;118.99
64032;DHT22;50278;47.796;11.968;2023-02-04T02:04:19;3.91;118.99
64032;DHT22;50278;47.796;11.968;2023-02-04T02:06:51;3.92;118.99
64032;DHT22;50278;47.796;11.968;2023-02-04T02:09:18;3.92;118.99
64032;DHT22;50278;47.796;11.968;2023-02-04T02:11:43;3.84;118.99
64032;DHT22;50278;47.796;11.968;2023-02-04T02:14:10;3.79;118.99
64032;DHT22;50278;47.796;11.968;2023-02-04T02:16:40;3.54;118.99
64032;DHT22;50278;47.796;11.968;2023-02-04T02:19:06;3.29;118.99
64032;DHT22;50278;47.796;11.968;2023-02-04T02:22:00;3.15;118.99
64032;DHT22;50278;47.796;11.968;2023-02-04T02:24:29;3.18;118.99
64032;DHT22;50278;47.796;11.968;2023-02-04T02:26:56;3.16;118.99
64032;DHT22;50278;47.796;11.968;2023-02-04T02:29:23;3.10;118.99
64032;DHT22;50278;47.796;11.968;2023-02-04T02:31:49;3.04;118.99
64032;DHT22;50278;47.796;11.968;2023-02-04T02:34:15;2.97;118.99
64032;DHT22;50278;47.796;11.968;2023-02-04T02:36:41;3.10;118.99
64032;DHT22;50278;47.796;11.968;2023-02-04T02:39:07;3.18;118.99
64032;DHT22;50278;47.796;11.968;2023-02-04T02:41:33;3.18;118.99
64032;DHT22;50278;47.796;11.968;2023-02-04T02:44:00;3.38;118.99
64032;DHT22;50278;47.796;11.968;2023-02-04T02:46:26;3.53;118.99
64032;DHT22;50278;47.796;11.968;2023-02-04T02:48:52;3.58;118.99
64032;DHT22;50278;47.796;11.968;2023-02-04T02:51:17;3.52;118.99
64032;DHT22;50278;47.796;11.968;2023-02-04T02:53:48;3.47;118.99
64032;DHT22;50278;47.796;11.968;2023-02-04T02:56:16;3.41;118.99
64032;DHT22;50278;47.796;11.968;2023-02-04T02:58:42;3.38;118.99
64032;DHT22;50278;47.796;11.968;2023-02-04T03:01:08;3.29;118.99
64032;DHT22;50278;47.796;11.968;2023-02-04T03:03:55;3.20;118.99
64032;DHT22;50278;47.796;11.968;2023-02-04T03:06:23;3.11;118.99
64032;DHT22;50278;47.796;11.968;2023-02-04T03:08:52;3.05;118.99
64032;DHT22;50278;47.796;11.968;2023-02-04T03:11:20;3.04;118.99
64032;DHT22;50278;47.796;11.968;2023-02-04T03:13:47;3.00;118.99
64032;DHT22;50278;47.796;11.968;2023-02-04T03:16:13;2.90;118.99
64032;DHT22;50278;47.796;11.968;2023-02-04T03:18:39;2.82;118.99
64032;DHT22;50278;47.796;11.968;2023-02-04T03:21:05;2.78;118.99
64032;DHT22;50278;47.796;11.968;2023-02-04T03:23:35;2.80;118.99
64032;DHT22;50278;47.796;11.968;2023-02-04T03:26:03;2.78;118.99
64032;DHT22;50278;47.796;11.968;2023-02-04T03:28:29;2.88;118.99
64032;DHT22;50278;47.796;11.968;2023-02-04T03:30:56;2.88;118.99
64032;DHT22;50278;47.796;11.968;2023-02-04T03:33:27;2.89;118.99
64032;DHT22;50278;47.796;11.968;2023-02-04T03:35:59;2.95;118.99
64032;DHT22;50278;47.796;11.968;2023-02-04T03:38:25;2.91;118.99
64032;DHT22;50278;47.796;11.968;2023-02-04T03:40:50;2.91;118.99
64032;DHT22;50278;47.796;11.968;2023-02-04T03:43:16;2.88;118.99
64032;DHT22;50278;47.796;11.968;2023-02-04T03:45:41;2.82;118.99
64032;DHT22;50278;47.796;11.968;2023-02-04T03:48:07;2.81;118.99
64032;DHT22;50278;47.796;11.968;2023-02-04T03:50:32;2.78;118.99
64032;DHT22;50278;47.796;11.968;2023-02-04T03:52:58;2.81;118.99
64032;DHT22;50278;47.796;11.968;2023-02-04T03:55:23;2.85;118.99
64032;DHT22;50278;47.796;11.968;2023-02-04T03:57:51;2.88;118.99
64032;DHT22;50278;47.796;11.968;2023-02-04T04:00:17;2.87;118.99
64032;DHT22;50278;47.796;11.968;2023-02-04T04:02:43;2.91;118.99
64032;DHT22;50278;47.796;11.968;2023-02-04T04:05:09;2.88;118.99
64032;DHT22;50278;47.796;11.968;2023-02-04T04:07:35;2.85;118.99
64032;DHT22;50278;47.796;11.968;2023-02-04T04:10:01;2.86;118.99
64032;DHT22;50278;47.796;11.968;2023-02-04T04:12:26;2.82;118.99
64032;DHT22;50278;47.796;11.968;2023-02-04T04:14:52;2.83;118.99
64032;DHT22;50278;47.796;11.968;2023-02-04T04:17:17;2.86;118.99
64032;DHT22;50278;47.796;11.968;2023-02-04T04:19:43;2.86;118.99
64032;DHT22;50278;47.796;11.968;2023-02-04T04:22:09;2.86;118.99
64032;DHT22;50278;47.796;11.968;2023-02-04T04:24:35;2.86;118.99
64032;DHT22;50278;47.796;11.968;2023-02-04T04:27:00;2.93;118.99
64032;DHT22;50278;47.796;11.968;2023-02-04T04:29:26;2.96;118.99
64032;DHT22;50278;47.796;11.968;2023-02-04T04:31:52;3.01;118.99
64032;DHT22;50278;47.796;11.968;2023-02-04T04:34:17;3.00;118.99
64032;DHT22;50278;47.796;11.968;2023-02-04T04:36:43;3.05;118.99
64032;DHT22;50278;47.796;11.968;2023-02-04T04:39:08;3.09;118.99
64032;DHT22;50278;47.796;11.968;2023-02-04T04:41:34;3.13;118.99
64032;DHT22;50278;47.796;11.968;2023-02-04T04:43:59;3.13;118.99
64032;DHT22;50278;47.796;11.968;2023-02-04T04:46:25;3.08;118.99
64032;DHT22;50278;47.796;11.968;2023-02-04T04:48:50;3.09;118.99
64032;DHT22;50278;47.796;11.968;2023-02-04T04:51:16;3.12;118.99
64032;DHT22;50278;47.796;11.968;2023-02-04T04:53:41;3.11;118.99
64032;DHT22;50278;47.796;11.968;2023-02-04T04:56:07;3.18;118.99
64032;DHT22;50278;47.796;11.968;2023-02-04T04:58:32;3.16;118.99
64032;DHT22;50278;47.796;11.968;2023-02-04T05:00:58;3.15;118.99
64032;DHT22;50278;47.796;11.968;2023-02-04T05:03:24;3.13;118.99
64032;DHT22;50278;47.796;11.968;2023-02-04T05:05:49;3.09;118.99
64032;DHT22;50278;47.796;11.968;2023-02-04T05:08:15;3.06;118.99
64032;DHT22;50278;47.796;11.968;2023-02-04T05:10:44;3.12;118.99
64032;DHT22;50278;47.796;11.968;2023-02-04T05:13:09;3.13;118.99
64032;DHT22;50278;47.796;11.968;2023-02-04T05:15:35;3.10;118.99
64032;DHT22;50278;47.796;11.968;2023-02-04T05:18:01;3.09;118.99
64032;DHT22;50278;47.796;11.968;2023-02-04T05:20:27;3.12;118.99
64032;DHT22;50278;47.796;11.968;2023-02-04T05:22:52;3.08;118.99
64032;DHT22;50278;47.796;11.968;2023-02-04T05:25:21;3.11;118.99
64032;DHT22;50278;47.796;11.968;2023-02-04T05:27:46;3.12;118.99
64032;DHT22;50278;47.796;11.968;2023-02-04T05:30:13;3.18;118.99
64032;DHT22;50278;47.796;11.968;2023-02-04T05:32:39;3.06;118.99
64032;DHT22;50278;47.796;11.968;2023-02-04T05:35:05;3.05;118.99
64032;DHT22;50278;47.796;11.968;2023-02-04T05:37:31;3.11;118.99
64032;DHT22;50278;47.796;11.968;2023-02-04T05:39:56;3.11;118.99
64032;DHT22;50278;47.796;11.968;2023-02-04T05:42:22;3.05;118.99
64032;DHT22;50278;47.796;11.968;2023-02-04T05:44:48;3.04;118.99
64032;DHT22;50278;47.796;11.968;2023-02-04T05:47:13;3.09;118.99
64032;DHT22;50278;47.796;11.968;2023-02-04T05:49:39;3.09;118.99
64032;DHT22;50278;47.796;11.968;2023-02-04T05:52:05;3.11;118.99
64032;DHT22;50278;47.796;11.968;2023-02-04T05:54:31;3.09;118.99
64032;DHT22;50278;47.796;11.968;2023-02-04T05:56:56;3.10;118.99
64032;DHT22;50278;47.796;11.968;2023-02-04T05:59:22;3.11;118.99
64032;DHT22;50278;47.796;11.968;2023-02-04T06:01:47;3.14;118.99
64032;DHT22;50278;47.796;11.968;2023-02-04T06:04:15;3.14;118.99
64032;DHT22;50278;47.796;11.968;2023-02-04T06:06:43;3.11;118.99
64032;DHT22;50278;47.796;11.968;2023-02-04T06:09:09;3.08;118.99
64032;DHT22;50278;47.796;11.968;2023-02-04T06:11:35;3.12;118.99
64032;DHT22;50278;47.796;11.968;2023-02-04T06:14:01;3.12;118.99
64032;DHT22;50278;47.796;11.968;2023-02-04T06:16:26;3.11;118.99
64032;DHT22;50278;47.796;11.968;2023-02-04T06:18:52;3.14;118.99
64032;DHT22;50278;47.796;11.968;2023-02-04T06:21:17;3.10;118.99
64032;DHT22;50278;47.796;11.968;2023-02-04T06:23:43;3.04;118.99
64032;DHT22;50278;47.796;11.968;2023-02-04T06:26:09;3.05;118.99
64032;DHT22;50278;47.796;11.968;2023-02-04T06:28:34;3.02;118.99
64032;DHT22;50278;47.796;11.968;2023-02-04T06:31:00;3.03;118.99
64032;DHT22;50278;47.796;11.968;2023-02-04T06:33:25;3.06;118.99
64032;DHT22;50278;47.796;11.968;2023-02-04T06:35:51;3.13;118.99
64032;DHT22;50278;47.796;11.968;2023-02-04T06:38:16;3.06;118.99
64032;DHT22;50278;47.796;11.968;2023-02-04T06:40:42;3.10;118.99
64032;DHT22;50278;47.796;11.968;2023-02-04T06:43:07;3.02;118.99
64032;DHT22;50278;47.796;11.968;2023-02-04T06:45:33;3.02;118.99
64032;DHT22;50278;47.796;11.968;2023-02-04T06:48:00;3.03;118.99
64032;DHT22;50278;47.796;11.968;2023-02-04T06:50:25;2.97;118.99
64032;DHT22;50278;47.796;11.968;2023-02-04T06:52:51;2.94;118.99
64032;DHT22;50278;47.796;11.968;2023-02-04T06:55:16;2.99;118.99
64032;DHT22;50278;47.796;11.968;2023-02-04T06:57:44;2.93;118.99
64032;DHT22;50278;47.796;11.968;2023-02-04T07:00:12;2.95;118.99
64032;DHT22;50278;47.796;11.968;2023-02-04T07:02:37;2.96;118.99
64032;DHT22;50278;47.796;11.968;2023-02-04T07:05:04;2.96;118.99
64032;DHT22;50278;47.796;11.968;2023-02-04T07:07:30;3.02;118.99
64032;DHT22;50278;47.796;11.968;2023-02-04T07:09:56;3.08;118.99
64032;DHT22;50278;47.796;11.968;2023-02-04T07:12:21;3.13;118.99
64032;DHT22;50278;47.796;11.968;2023-02-04T07:14:47;3.09;118.99
64032;DHT22;50278;47.796;11.968;2023-02-04T07:17:12;3.12;118.99
64032;DHT22;50278;47.796;11.968;2023-02-04T07:19:38;3.15;118.99
64032;DHT22;50278;47.796;11.968;2023-02-04T07:22:04;3.13;118.99
64032;DHT22;50278;47.796;11.968;2023-02-04T07:24:29;3.16;118.99
64032;DHT22;50278;47.796;11.968;2023-02-04T07:26:55;3.18;118.99
64032;DHT22;50278;47.796;11.968;2023-02-04T07:29:21;3.20;118.99
64032;DHT22;50278;47.796;11.968;2023-02-04T07:31:46;3.17;118.99
64032;DHT22;50278;47.796;11.968;2023-02-04T07:34:16;3.18;118.99
64032;DHT22;50278;47.796;11.968;2023-02-04T07:36:42;3.25;118.99
64032;DHT22;50278;47.796;11.968;2023-02-04T07:39:08;3.31;118.99
64032;DHT22;50278;47.796;11.968;2023-02-04T07:41:34;3.29;118.99
64032;DHT22;50278;47.796;11.968;2023-02-04T07:44:00;3.46;118.99
64032;DHT22;50278;47.796;11.968;2023-02-04T07:46:25;3.57;118.99
64032;DHT22;50278;47.796;11.968;2023-02-04T07:48:51;3.68;118.99
64032;DHT22;50278;47.796;11.968;2023-02-04T07:51:16;3.75;118.99
64032;DHT22;50278;47.796;11.968;2023-02-04T07:53:42;3.82;118.99
64032;DHT22;50278;47.796;11.968;2023-02-04T07:56:09;3.83;118.99
64032;DHT22;50278;47.796;11.968;2023-02-04T07:58:35;3.90;118.99
64032;DHT22;50278;47.796;11.968;2023-02-04T08:01:01;3.93;118.99
64032;DHT22;50278;47.796;11.968;2023-02-04T08:03:27;3.90;118.99
64032;DHT22;50278;47.796;11.968;2023-02-04T08:05:53;3.89;118.99
64032;DHT22;50278;47.796;11.968;2023-02-04T08:08:18;3.90;118.99
64032;DHT22;50278;47.796;11.968;2023-02-04T08:10:44;3.95;118.99
64032;DHT22;50278;47.796;11.968;2023-02-04T08:13:10;3.95;118.99
64032;DHT22;50278;47.796;11.968;2023-02-04T08:15:36;3.97;118.99
64032;DHT22;50278;47.796;11.968;2023-02-04T08:18:01;4.01;118.99
64032;DHT22;50278;47.796;11.968;2023-02-04T08:20:27;3.91;118.99
64032;DHT22;50278;47.796;11.968;2023-02-04T08:22:52;3.91;118.99
64032;DHT22;50278;47.796;11.968;2023-02-04T08:25:18;3.91;118.99
64032;DHT22;50278;47.796;11.968;2023-02-04T08:27:44;3.98;118.99
64032;DHT22;50278;47.796;11.968;2023-02-04T08:30:10;3.97;118.99
64032;DHT22;50278;47.796;11.968;2023-02-04T08:32:36;4.01;118.99
64032;DHT22;50278;47.796;11.968;2023-02-04T08:35:02;4.04;118.99
64032;DHT22;50278;47.796;11.968;2023-02-04T08:37:27;4.13;118.99
64032;DHT22;50278;47.796;11.968;2023-02-04T08:39:53;4.14;118.99
64032;DHT22;50278;47.796;11.968;2023-02-04T08:42:19;4.18;118.99
64032;DHT22;50278;47.796;11.968;2023-02-04T08:44:44;4.14;118.99
64032;DHT22;50278;47.796;11.968;2023-02-04T08:47:10;4.13;118.99
64032;DHT22;50278;47.796;11.968;2023-02-04T08:49:36;4.19;115.64
64032;DHT22;50278;47.796;11.968;2023-02-04T08:52:02;4.17;109.59
64032;DHT22;50278;47.796;11.968;2023-02-04T08:54:30;4.23;108.60
64032;DHT22;50278;47.796;11.968;2023-02-04T08:56:56;4.24;111.39
64032;DHT22;50278;47.796;11.968;2023-02-04T08:59:21;4.34;108.67
64032;DHT22;50278;47.796;11.968;2023-02-04T09:01:49;4.33;111.23
64032;DHT22;50278;47.796;11.968;2023-02-04T09:04:21;4.33;104.42
64032;DHT22;50278;47.796;11.968;2023-02-04T09:06:48;4.37;102.60
64032;DHT22;50278;47.796;11.968;2023-02-04T09:09:14;4.33;103.38
64032;DHT22;50278;47.796;11.968;2023-02-04T09:11:40;4.44;102.79
64032;DHT22;50278;47.796;11.968;2023-02-04T09:14:06;4.43;104.13
64032;DHT22;50278;47.796;11.968;2023-02-04T09:16:32;4.68;98.52
64032;DHT22;50278;47.796;11.968;2023-02-04T09:18:58;4.69;97.02
64032;DHT22;50278;47.796;11.968;2023-02-04T09:21:24;4.59;99.40
64032;DHT22;50278;47.796;11.968;2023-02-04T09:23:50;4.57;99.09
64032;DHT22;50278;47.796;11.968;2023-02-04T09:26:16;4.63;95.78
64032;DHT22;50278;47.796;11.968;2023-02-04T09:28:42;4.75;99.22
64032;DHT22;50278;47.796;11.968;2023-02-04T09:31:07;4.90;95.00
64032;DHT22;50278;47.796;11.968;2023-02-04T09:33:34;4.91;91.41
64032;DHT22;50278;47.796;11.968;2023-02-04T09:36:00;4.82;93.64
64032;DHT22;50278;47.796;11.968;2023-02-04T09:38:25;4.77;89.22
64032;DHT22;50278;47.796;11.968;2023-02-04T09:40:56;4.83;90.03
64032;DHT22;50278;47.796;11.968;2023-02-04T09:43:28;5.01;89.41
64032;DHT22;50278;47.796;11.968;2023-02-04T09:45:54;5.00;92.25
64032;DHT22;50278;47.796;11.968;2023-02-04T09:48:21;4.93;85.87
64032;DHT22;50278;47.796;11.968;2023-02-04T09:50:48;4.88;86.89
64032;DHT22;50278;47.796;11.968;2023-02-04T09:53:16;4.94;89.17
64032;DHT22;50278;47.796;11.968;2023-02-04T09:55:44;4.83;81.94
64032;DHT22;50278;47.796;11.968;2023-02-04T09:58:16;4.78;83.20
64032;DHT22;50278;47.796;11.968;2023-02-04T10:00:43;4.84;85.68
64032;DHT22;50278;47.796;11.968;2023-02-04T10:03:16;5.00;85.32
64032;DHT22;50278;47.796;11.968;2023-02-04T10:05:44;4.96;83.96
64032;DHT22;50278;47.796;11.968;2023-02-04T10:08:15;5.05;82.75
64032;DHT22;50278;47.796;11.968;2023-02-04T10:10:42;5.04;82.54
64032;DHT22;50278;47.796;11.968;2023-02-04T10:13:20;5.13;79.69
64032;DHT22;50278;47.796;11.968;2023-02-04T10:15:49;5.05;77.15
64032;DHT22;50278;47.796;11.968;2023-02-04T10:18:24;5.07;77.96
64032;DHT22;50278;47.796;11.968;2023-02-04T10:20:54;4.90;76.76
64032;DHT22;50278;47.796;11.968;2023-02-04T10:23:21;4.95;76.73
64032;DHT22;50278;47.796;11.968;2023-02-04T10:25:50;5.17;78.59
64032;DHT22;50278;47.796;11.968;2023-02-04T10:28:15;5.46;71.81
64032;DHT22;50278;47.796;11.968;2023-02-04T10:30:42;5.22;75.43
64032;DHT22;50278;47.796;11.968;2023-02-04T10:33:22;5.61;71.10
64032;DHT22;50278;47.796;11.968;2023-02-04T10:35:53;5.54;75.25
64032;DHT22;50278;47.796;11.968;2023-02-04T10:38:20;5.38;74.57
64032;DHT22;50278;47.796;11.968;2023-02-04T10:40:46;5.47;72.40
64032;DHT22;50278;47.796;11.968;2023-02-04T10:43:17;5.41;76.08
64032;DHT22;50278;47.796;11.968;2023-02-04T10:45:54;5.37;75.09
64032;DHT22;50278;47.796;11.968;2023-02-04T10:48:20;5.66;71.96
64032;DHT22;50278;47.796;11.968;2023-02-04T10:50:47;5.32;72.62
64032;DHT22;50278;47.796;11.968;2023-02-04T10:53:21;5.46;72.38
64032;DHT22;50278;47.796;11.968;2023-02-04T10:56:15;5.53;68.98
64032;DHT22;50278;47.796;11.968;2023-02-04T10:58:41;5.28;72.18
64032;DHT22;50278;47.796;11.968;2023-02-04T11:01:11;5.35;74.19
64032;DHT22;50278;47.796;11.968;2023-02-04T11:03:39;5.05;73.64
64032;DHT22;50278;47.796;11.968;2023-02-04T11:06:10;5.05;75.00
64032;DHT22;50278;47.796;11.968;2023-02-04T11:08:37;5.10;76.73
64032;DHT22;50278;47.796;11.968;2023-02-04T11:11:05;5.16;74.54
64032;DHT22;50278;47.796;11.968;2023-02-04T11:13:56;5.32;74.87
64032;DHT22;50278;47.796;11.968;2023-02-04T11:18:53;4.33;81.81
64032;DHT22;50278;47.796;11.968;2023-02-04T11:24:16;4.08;83.77
64032;DHT22;50278;47.796;11.968;2023-02-04T11:26:45;3.83;83.32
64032;DHT22;50278;47.796;11.968;2023-02-04T11:44:51;3.59;93.62
64032;DHT22;50278;47.796;11.968;2023-02-04T11:47:17;3.58;93.94
64032;DHT22;50278;47.796;11.968;2023-02-04T11:49:45;3.60;90.36
64032;DHT22;50278;47.796;11.968;2023-02-04T11:52:13;3.67;94.49
64032;DHT22;50278;47.796;11.968;2023-02-04T11:54:39;3.75;95.20
64032;DHT22;50278;47.796;11.968;2023-02-04T11:57:05;3.67;97.60
64032;DHT22;50278;47.796;11.968;2023-02-04T11:59:30;3.74;94.15
64032;DHT22;50278;47.796;11.968;2023-02-04T12:02:14;3.62;93.75
64032;DHT22;50278;47.796;11.968;2023-02-04T12:04:50;3.71;91.81
64032;DHT22;50278;47.796;11.968;2023-02-04T12:07:23;3.56;95.97
64032;DHT22;50278;47.796;11.968;2023-02-04T12:09:49;3.47;95.56
64032;DHT22;50278;47.796;11.968;2023-02-04T12:12:26;3.41;95.79
64032;DHT22;50278;47.796;11.968;2023-02-04T12:15:07;3.44;94.48
64032;DHT22;50278;47.796;11.968;2023-02-04T12:17:34;3.45;96.44
64032;DHT22;50278;47.796;11.968;2023-02-04T12:19:59;3.44;97.88
64032;DHT22;50278;47.796;11.968;2023-02-04T12:22:25;3.41;91.32
64032;DHT22;50278;47.796;11.968;2023-02-04T12:24:50;3.36;88.92
64032;DHT22;50278;47.796;11.968;2023-02-04T12:27:16;3.34;89.38
64032;DHT22;50278;47.796;11.968;2023-02-04T12:29:42;3.32;92.96
64032;DHT22;50278;47.796;11.968;2023-02-04T12:32:08;3.40;92.12
64032;DHT22;50278;47.796;11.968;2023-02-04T12:34:33;3.38;91.15
64032;DHT22;50278;47.796;11.968;2023-02-04T12:36:58;3.23;91.53
64032;DHT22;50278;47.796;11.968;2023-02-04T12:39:24;3.28;97.03
64032;DHT22;50278;47.796;11.968;2023-02-04T12:41:49;3.44;97.39
64032;DHT22;50278;47.796;11.968;2023-02-04T12:44:15;3.46;96.89
64032;DHT22;50278;47.796;11.968;2023-02-04T12:46:41;3.52;94.55
64032;DHT22;50278;47.796;11.968;2023-02-04T12:49:07;3.60;92.72
64032;DHT22;50278;47.796;11.968;2023-02-04T12:51:32;3.54;93.37
64032;DHT22;50278;47.796;11.968;2023-02-04T12:53:58;3.54;93.47
64032;DHT22;50278;47.796;11.968;2023-02-04T12:56:23;3.50;96.36
64032;DHT22;50278;47.796;11.968;2023-02-04T12:58:49;3.47;89.47
64032;DHT22;50278;47.796;11.968;2023-02-04T13:01:14;3.28;90.18
64032;DHT22;50278;47.796;11.968;2023-02-04T13:03:40;3.31;89.53
64032;DHT22;50278;47.796;11.968;2023-02-04T13:06:05;3.21;85.63
64032;DHT22;50278;47.796;11.968;2023-02-04T13:08:31;3.31;87.99
64032;DHT22;50278;47.796;11.968;2023-02-04T13:10:56;3.40;87.68
64032;DHT22;50278;47.796;11.968;2023-02-04T13:13:22;3.69;80.96
64032;DHT22;50278;47.796;11.968;2023-02-04T13:15:48;3.69;79.52
64032;DHT22;50278;47.796;11.968;2023-02-04T13:18:14;3.86;80.36
64032;DHT22;50278;47.796;11.968;2023-02-04T13:20:40;3.87;83.75
64032;DHT22;50278;47.796;11.968;2023-02-04T13:23:21;3.68;81.55
64032;DHT22;50278;47.796;11.968;2023-02-04T13:26:23;3.82;82.02
64032;DHT22;50278;47.796;11.968;2023-02-04T13:28:49;3.87;79.75
64032;DHT22;50278;47.796;11.968;2023-02-04T13:31:14;3.91;78.47
64032;DHT22;50278;47.796;11.968;2023-02-04T13:33:40;4.08;78.63
64032;DHT22;50278;47.796;11.968;2023-02-04T13:36:05;4.09;78.52
64032;DHT22;50278;47.796;11.968;2023-02-04T13:38:31;3.92;76.31
64032;DHT22;50278;47.796;11.968;2023-02-04T13:40:56;3.87;78.31
64032;DHT22;50278;47.796;11.968;2023-02-04T13:43:22;3.85;78.95
64032;DHT22;50278;47.796;11.968;2023-02-04T13:45:48;3.86;77.81
64032;DHT22;50278;47.796;11.968;2023-02-04T13:48:14;3.91;79.15
64032;DHT22;50278;47.796;11.968;2023-02-04T13:50:40;4.07;77.14
64032;DHT22;50278;47.796;11.968;2023-02-04T13:53:05;4.01;74.99
64032;DHT22;50278;47.796;11.968;2023-02-04T13:55:32;4.18;73.27
64032;DHT22;50278;47.796;11.968;2023-02-04T13:57:58;4.27;72.66
64032;DHT22;50278;47.796;11.968;2023-02-04T14:00:23;4.04;74.94
64032;DHT22;50278;47.796;11.968;2023-02-04T14:02:49;3.85;76.48
64032;DHT22;50278;47.796;11.968;2023-02-04T14:05:15;4.00;74.86
64032;DHT22;50278;47.796;11.968;2023-02-04T14:07:40;3.95;73.57
64032;DHT22;50278;47.796;11.968;2023-02-04T14:10:06;3.95;82.26
64032;DHT22;50278;47.796;11.968;2023-02-04T14:12:32;3.70;77.50
64032;DHT22;50278;47.796;11.968;2023-02-04T14:14:57;3.60;77.72
64032;DHT22;50278;47.796;11.968;2023-02-04T14:17:23;3.65;82.17
64032;DHT22;50278;47.796;11.968;2023-02-04T14:19:49;3.67;82.55
64032;DHT22;50278;47.796;11.968;2023-02-04T14:22:15;3.70;82.65
64032;DHT22;50278;47.796;11.968;2023-02-04T14:24:41;3.74;82.09
64032;DHT22;50278;47.796;11.968;2023-02-04T14:27:08;3.69;83.23
64032;DHT22;50278;47.796;11.968;2023-02-04T14:29:34;3.75;85.16
64032;DHT22;50278;47.796;11.968;2023-02-04T14:32:00;4.13;77.50
64032;DHT22;50278;47.796;11.968;2023-02-04T14:34:26;3.88;77.42
64032;DHT22;50278;47.796;11.968;2023-02-04T14:36:51;3.82;78.52
64032;DHT22;50278;47.796;11.968;2023-02-04T14:39:17;3.67;80.01
64032;DHT22;50278;47.796;11.968;2023-02-04T14:41:42;3.59;80.74
64032;DHT22;50278;47.796;11.968;2023-02-04T14:44:08;3.58;83.81
64032;DHT22;50278;47.796;11.968;2023-02-04T14:46:34;3.58;85.45
64032;DHT22;50278;47.796;11.968;2023-02-04T14:48:59;3.47;79.56
64032;DHT22;50278;47.796;11.968;2023-02-04T14:51:25;3.48;84.16
64032;DHT22;50278;47.796;11.968;2023-02-04T14:53:50;3.56;86.84
64032;DHT22;50278;47.796;11.968;2023-02-04T14:56:16;3.55;84.30
64032;DHT22;50278;47.796;11.968;2023-02-04T14:58:41;3.47;84.35
64032;DHT22;50278;47.796;11.968;2023-02-04T15:01:07;3.45;83.75
64032;DHT22;50278;47.796;11.968;2023-02-04T15:03:33;3.48;84.36
64032;DHT22;50278;47.796;11.968;2023-02-04T15:05:58;3.53;85.15
64032;DHT22;50278;47.796;11.968;2023-02-04T15:08:24;3.55;86.51
64032;DHT22;50278;47.796;11.968;2023-02-04T15:10:49;3.56;86.84
64032;DHT22;50278;47.796;11.968;2023-02-04T15:13:15;3.53;88.65
64032;DHT22;50278;47.796;11.968;2023-02-04T15:15:40;3.57;87.56
64032;DHT22;50278;47.796;11.968;2023-02-04T15:18:06;3.59;89.76
64032;DHT22;50278;47.796;11.968;2023-02-04T15:20:31;3.52;88.21
64032;DHT22;50278;47.796;11.968;2023-02-04T15:22:57;3.55;92.08
64032;DHT22;50278;47.796;11.968;2023-02-04T15:25:23;3.47;89.67
64032;DHT22;50278;47.796;11.968;2023-02-04T15:27:48;3.45;89.14
64032;DHT22;50278;47.796;11.968;2023-02-04T15:30:14;3.45;92.41
64032;DHT22;50278;47.796;11.968;2023-02-04T15:32:40;3.43;93.98
64032;DHT22;50278;47.796;11.968;2023-02-04T15:35:07;3.43;93.85
64032;DHT22;50278;47.796;11.968;2023-02-04T15:37:34;3.40;88.86
64032;DHT22;50278;47.796;11.968;2023-02-04T15:39:59;3.38;88.57
64032;DHT22;50278;47.796;11.968;2023-02-04T15:42:26;3.40;87.18